sensor_id;sensor_type;location;lat;lon;timestamp;P1;durP1;ratioP1;P2;durP2;ratioP2
16662;SDS011;8445;51.270;9.434;2023-08-20T00:01:04;21.40;;;17.25;;
16662;SDS011;8445;51.270;9.434;2023-08-20T00:03:31;17.80;;;15.63;;
16662;SDS011;8445;51.270;9.434;2023-08-20T00:06:09;17.17;;;15.13;;
16662;SDS011;8445;51.270;9.434;2023-08-20T00:08:39;19.73;;;14.93;;
16662;SDS011;8445;51.270;9.434;2023-08-20T00:11:23;18.92;;;15.98;;
16662;SDS011;8445;51.270;9.434;2023-08-20T00:13:51;19.13;;;16.50;;
16662;SDS011;8445;51.270;9.434;2023-08-20T00:16:27;17.52;;;14.77;;
16662;SDS011;8445;51.270;9.434;2023-08-20T00:19:00;15.57;;;13.82;;
16662;SDS011;8445;51.270;9.434;2023-08-20T00:21:29;17.73;;;12.85;;
16662;SDS011;8445;51.270;9.434;2023-08-20T00:24:05;18.35;;;12.68;;
16662;SDS011;8445;51.270;9.434;2023-08-20T00:26:33;15.82;;;12.40;;
16662;SDS011;8445;51.270;9.434;2023-08-20T00:28:59;14.18;;;12.77;;
16662;SDS011;8445;51.270;9.434;2023-08-20T00:31:28;14.13;;;12.73;;
16662;SDS011;8445;51.270;9.434;2023-08-20T00:33:54;15.30;;;13.32;;
16662;SDS011;8445;51.270;9.434;2023-08-20T00:36:26;14.55;;;13.07;;
16662;SDS011;8445;51.270;9.434;2023-08-20T00:39:13;20.20;;;12.80;;
16662;SDS011;8445;51.270;9.434;2023-08-20T00:42:46;17.67;;;15.93;;
16662;SDS011;8445;51.270;9.434;2023-08-20T00:45:41;16.50;;;14.90;;
16662;SDS011;8445;51.270;9.434;2023-08-20T00:49:29;14.32;;;12.82;;
16662;SDS011;8445;51.270;9.434;2023-08-20T00:56:38;15.35;;;13.75;;
16662;SDS011;8445;51.270;9.434;2023-08-20T01:15:09;14.85;;;13.35;;
16662;SDS011;8445;51.270;9.434;2023-08-20T01:30:20;16.20;;;13.98;;
16662;SDS011;8445;51.270;9.434;2023-08-20T01:37:36;16.25;;;14.52;;
16662;SDS011;8445;51.270;9.434;2023-08-20T01:40:30;18.63;;;14.15;;
16662;SDS011;8445;51.270;9.434;2023-08-20T01:43:47;20.13;;;18.20;;
16662;SDS011;8445;51.270;9.434;2023-08-20T01:50:35;16.40;;;14.93;;
16662;SDS011;8445;51.270;9.434;2023-08-20T02:00:02;17.00;;;14.13;;
16662;SDS011;8445;51.270;9.434;2023-08-20T02:03:13;15.52;;;12.75;;
16662;SDS011;8445;51.270;9.434;2023-08-20T02:06:08;13.55;;;12.25;;
16662;SDS011;8445;51.270;9.434;2023-08-20T02:09:24;16.58;;;13.77;;
16662;SDS011;8445;51.270;9.434;2023-08-20T02:13:24;15.75;;;13.13;;
16662;SDS011;8445;51.270;9.434;2023-08-20T02:16:54;15.63;;;13.80;;
16662;SDS011;8445;51.270;9.434;2023-08-20T02:20:29;15.82;;;14.10;;
16662;SDS011;8445;51.270;9.434;2023-08-20T02:24:12;17.20;;;14.13;;
16662;SDS011;8445;51.270;9.434;2023-08-20T02:27:33;16.48;;;14.77;;
16662;SDS011;8445;51.270;9.434;2023-08-20T02:34:50;16.23;;;14.82;;
16662;SDS011;8445;51.270;9.434;2023-08-20T02:38:13;15.93;;;14.10;;
16662;SDS011;8445;51.270;9.434;2023-08-20T02:41:00;15.05;;;13.68;;
16662;SDS011;8445;51.270;9.434;2023-08-20T02:44:35;15.98;;;14.38;;
16662;SDS011;8445;51.270;9.434;2023-08-20T02:56:02;16.02;;;14.43;;
16662;SDS011;8445;51.270;9.434;2023-08-20T02:59:13;15.38;;;13.93;;
16662;SDS011;8445;51.270;9.434;2023-08-20T03:02:25;15.48;;;13.98;;
16662;SDS011;8445;51.270;9.434;2023-08-20T03:05:37;15.23;;;13.77;;
16662;SDS011;8445;51.270;9.434;2023-08-20T03:08:58;16.88;;;13.80;;
16662;SDS011;8445;51.270;9.434;2023-08-20T03:12:34;19.48;;;15.32;;
16662;SDS011;8445;51.270;9.434;2023-08-20T03:15:49;15.93;;;14.27;;
16662;SDS011;8445;51.270;9.434;2023-08-20T03:23:43;16.25;;;14.70;;
16662;SDS011;8445;51.270;9.434;2023-08-20T03:35:26;16.92;;;15.13;;
16662;SDS011;8445;51.270;9.434;2023-08-20T03:42:00;23.33;;;16.83;;
16662;SDS011;8445;51.270;9.434;2023-08-20T03:49:04;22.52;;;18.13;;
16662;SDS011;8445;51.270;9.434;2023-08-20T03:52:55;24.83;;;18.42;;
16662;SDS011;8445;51.270;9.434;2023-08-20T04:00:06;20.08;;;17.50;;
16662;SDS011;8445;51.270;9.434;2023-08-20T04:03:53;20.35;;;18.08;;
16662;SDS011;8445;51.270;9.434;2023-08-20T04:11:03;25.13;;;18.50;;
16662;SDS011;8445;51.270;9.434;2023-08-20T04:18:14;18.52;;;16.15;;
16662;SDS011;8445;51.270;9.434;2023-08-20T04:22:07;15.93;;;14.32;;
16662;SDS011;8445;51.270;9.434;2023-08-20T04:32:09;16.73;;;15.10;;
16662;SDS011;8445;51.270;9.434;2023-08-20T04:35:35;15.55;;;13.40;;
16662;SDS011;8445;51.270;9.434;2023-08-20T04:38:59;15.88;;;14.20;;
16662;SDS011;8445;51.270;9.434;2023-08-20T04:42:34;13.30;;;12.00;;
16662;SDS011;8445;51.270;9.434;2023-08-20T04:49:33;16.92;;;14.25;;
16662;SDS011;8445;51.270;9.434;2023-08-20T04:57:03;19.25;;;16.27;;
16662;SDS011;8445;51.270;9.434;2023-08-20T05:03:45;17.80;;;16.05;;
16662;SDS011;8445;51.270;9.434;2023-08-20T05:07:04;16.88;;;15.23;;
16662;SDS011;8445;51.270;9.434;2023-08-20T05:20:43;22.33;;;19.98;;
16662;SDS011;8445;51.270;9.434;2023-08-20T05:27:47;20.55;;;18.58;;
16662;SDS011;8445;51.270;9.434;2023-08-20T05:35:24;24.52;;;20.75;;
16662;SDS011;8445;51.270;9.434;2023-08-20T05:46:56;30.55;;;26.48;;
16662;SDS011;8445;51.270;9.434;2023-08-20T05:58:15;34.47;;;26.88;;
16662;SDS011;8445;51.270;9.434;2023-08-20T06:01:16;29.90;;;26.80;;
16662;SDS011;8445;51.270;9.434;2023-08-20T06:04:05;30.83;;;27.73;;
16662;SDS011;8445;51.270;9.434;2023-08-20T06:06:42;34.80;;;29.00;;
16662;SDS011;8445;51.270;9.434;2023-08-20T06:09:11;34.00;;;29.63;;
16662;SDS011;8445;51.270;9.434;2023-08-20T06:11:45;37.75;;;30.13;;
16662;SDS011;8445;51.270;9.434;2023-08-20T06:14:17;31.65;;;28.25;;
16662;SDS011;8445;51.270;9.434;2023-08-20T06:16:52;31.55;;;28.23;;
16662;SDS011;8445;51.270;9.434;2023-08-20T06:19:28;33.80;;;28.35;;
16662;SDS011;8445;51.270;9.434;2023-08-20T06:22:11;32.20;;;28.67;;
16662;SDS011;8445;51.270;9.434;2023-08-20T06:24:42;30.75;;;27.55;;
16662;SDS011;8445;51.270;9.434;2023-08-20T06:27:34;31.63;;;28.33;;
16662;SDS011;8445;51.270;9.434;2023-08-20T06:30:16;29.85;;;26.88;;
16662;SDS011;8445;51.270;9.434;2023-08-20T06:32:47;28.10;;;25.27;;
16662;SDS011;8445;51.270;9.434;2023-08-20T06:35:23;30.10;;;27.00;;
16662;SDS011;8445;51.270;9.434;2023-08-20T06:37:54;28.95;;;25.00;;
16662;SDS011;8445;51.270;9.434;2023-08-20T06:40:23;28.92;;;26.08;;
16662;SDS011;8445;51.270;9.434;2023-08-20T06:43:01;26.58;;;23.88;;
16662;SDS011;8445;51.270;9.434;2023-08-20T06:45:32;28.40;;;25.40;;
16662;SDS011;8445;51.270;9.434;2023-08-20T06:48:03;29.63;;;24.00;;
16662;SDS011;8445;51.270;9.434;2023-08-20T06:50:46;27.90;;;24.63;;
16662;SDS011;8445;51.270;9.434;2023-08-20T06:53:15;26.00;;;23.42;;
16662;SDS011;8445;51.270;9.434;2023-08-20T06:55:43;26.98;;;23.08;;
16662;SDS011;8445;51.270;9.434;2023-08-20T06:58:18;24.58;;;21.98;;
16662;SDS011;8445;51.270;9.434;2023-08-20T07:00:46;23.90;;;21.58;;
16662;SDS011;8445;51.270;9.434;2023-08-20T07:03:13;23.67;;;21.52;;
16662;SDS011;8445;51.270;9.434;2023-08-20T07:05:46;23.60;;;21.23;;
16662;SDS011;8445;51.270;9.434;2023-08-20T07:08:18;22.10;;;20.00;;
16662;SDS011;8445;51.270;9.434;2023-08-20T07:10:44;23.27;;;20.85;;
16662;SDS011;8445;51.270;9.434;2023-08-20T07:13:12;23.33;;;21.02;;
16662;SDS011;8445;51.270;9.434;2023-08-20T07:15:40;21.98;;;19.67;;
16662;SDS011;8445;51.270;9.434;2023-08-20T07:18:09;22.70;;;20.60;;
16662;SDS011;8445;51.270;9.434;2023-08-20T07:20:54;22.83;;;20.55;;
16662;SDS011;8445;51.270;9.434;2023-08-20T07:23:25;20.88;;;18.73;;
16662;SDS011;8445;51.270;9.434;2023-08-20T07:26:04;22.27;;;19.98;;
16662;SDS011;8445;51.270;9.434;2023-08-20T07:28:44;19.67;;;17.88;;
16662;SDS011;8445;51.270;9.434;2023-08-20T07:31:22;18.58;;;16.85;;
16662;SDS011;8445;51.270;9.434;2023-08-20T07:34:00;21.20;;;17.00;;
16662;SDS011;8445;51.270;9.434;2023-08-20T07:36:30;19.55;;;17.83;;
16662;SDS011;8445;51.270;9.434;2023-08-20T07:38:56;18.58;;;16.58;;
16662;SDS011;8445;51.270;9.434;2023-08-20T07:41:25;18.77;;;17.17;;
16662;SDS011;8445;51.270;9.434;2023-08-20T07:43:54;19.90;;;18.10;;
16662;SDS011;8445;51.270;9.434;2023-08-20T07:46:23;20.27;;;18.40;;
16662;SDS011;8445;51.270;9.434;2023-08-20T07:48:49;20.00;;;18.17;;
16662;SDS011;8445;51.270;9.434;2023-08-20T07:51:15;19.50;;;17.58;;
16662;SDS011;8445;51.270;9.434;2023-08-20T07:54:08;20.05;;;17.90;;
16662;SDS011;8445;51.270;9.434;2023-08-20T07:56:42;18.10;;;16.50;;
16662;SDS011;8445;51.270;9.434;2023-08-20T07:59:13;18.17;;;16.48;;
16662;SDS011;8445;51.270;9.434;2023-08-20T08:01:42;18.95;;;16.95;;
16662;SDS011;8445;51.270;9.434;2023-08-20T08:04:12;17.02;;;15.52;;
16662;SDS011;8445;51.270;9.434;2023-08-20T08:06:47;18.80;;;17.10;;
16662;SDS011;8445;51.270;9.434;2023-08-20T08:09:20;24.83;;;22.75;;
16662;SDS011;8445;51.270;9.434;2023-08-20T08:12:05;17.15;;;15.43;;
16662;SDS011;8445;51.270;9.434;2023-08-20T08:14:37;17.63;;;15.98;;
16662;SDS011;8445;51.270;9.434;2023-08-20T08:17:08;17.23;;;15.52;;
16662;SDS011;8445;51.270;9.434;2023-08-20T08:19:39;17.23;;;15.50;;
16662;SDS011;8445;51.270;9.434;2023-08-20T08:22:11;17.35;;;15.73;;
16662;SDS011;8445;51.270;9.434;2023-08-20T08:24:45;17.27;;;15.77;;
16662;SDS011;8445;51.270;9.434;2023-08-20T08:27:11;17.92;;;16.10;;
16662;SDS011;8445;51.270;9.434;2023-08-20T08:29:37;17.85;;;16.35;;
16662;SDS011;8445;51.270;9.434;2023-08-20T08:32:03;16.02;;;14.63;;
16662;SDS011;8445;51.270;9.434;2023-08-20T08:34:29;18.67;;;17.08;;
16662;SDS011;8445;51.270;9.434;2023-08-20T08:36:57;17.60;;;16.00;;
16662;SDS011;8445;51.270;9.434;2023-08-20T08:39:36;16.50;;;15.02;;
16662;SDS011;8445;51.270;9.434;2023-08-20T08:42:05;17.58;;;15.77;;
16662;SDS011;8445;51.270;9.434;2023-08-20T08:44:39;16.52;;;15.07;;
16662;SDS011;8445;51.270;9.434;2023-08-20T08:47:07;16.25;;;14.82;;
16662;SDS011;8445;51.270;9.434;2023-08-20T08:49:33;15.25;;;13.82;;
16662;SDS011;8445;51.270;9.434;2023-08-20T08:52:12;14.75;;;13.48;;
16662;SDS011;8445;51.270;9.434;2023-08-20T08:54:39;14.73;;;13.32;;
16662;SDS011;8445;51.270;9.434;2023-08-20T08:57:05;15.52;;;14.13;;
16662;SDS011;8445;51.270;9.434;2023-08-20T08:59:43;14.43;;;13.13;;
16662;SDS011;8445;51.270;9.434;2023-08-20T09:02:42;14.57;;;13.27;;
16662;SDS011;8445;51.270;9.434;2023-08-20T09:05:13;15.00;;;13.70;;
16662;SDS011;8445;51.270;9.434;2023-08-20T09:07:47;15.70;;;14.20;;
16662;SDS011;8445;51.270;9.434;2023-08-20T09:10:25;14.25;;;13.15;;
16662;SDS011;8445;51.270;9.434;2023-08-20T09:13:04;15.65;;;14.15;;
16662;SDS011;8445;51.270;9.434;2023-08-20T09:15:39;16.58;;;15.27;;
16662;SDS011;8445;51.270;9.434;2023-08-20T09:18:16;15.60;;;14.20;;
16662;SDS011;8445;51.270;9.434;2023-08-20T09:20:56;14.73;;;13.50;;
16662;SDS011;8445;51.270;9.434;2023-08-20T09:23:28;13.05;;;11.90;;
16662;SDS011;8445;51.270;9.434;2023-08-20T09:25:59;12.95;;;11.25;;
16662;SDS011;8445;51.270;9.434;2023-08-20T09:28:45;14.25;;;12.90;;
16662;SDS011;8445;51.270;9.434;2023-08-20T09:31:39;12.43;;;11.38;;
16662;SDS011;8445;51.270;9.434;2023-08-20T09:34:17;11.48;;;10.50;;
16662;SDS011;8445;51.270;9.434;2023-08-20T09:37:14;11.35;;;10.45;;
16662;SDS011;8445;51.270;9.434;2023-08-20T09:40:32;12.77;;;11.65;;
16662;SDS011;8445;51.270;9.434;2023-08-20T09:43:15;12.48;;;11.32;;
16662;SDS011;8445;51.270;9.434;2023-08-20T09:46:09;12.05;;;10.93;;
16662;SDS011;8445;51.270;9.434;2023-08-20T09:48:47;12.70;;;11.60;;
16662;SDS011;8445;51.270;9.434;2023-08-20T09:51:26;11.95;;;10.85;;
16662;SDS011;8445;51.270;9.434;2023-08-20T09:57:26;12.35;;;11.15;;
16662;SDS011;8445;51.270;9.434;2023-08-20T10:00:08;13.23;;;12.02;;
16662;SDS011;8445;51.270;9.434;2023-08-20T10:02:44;11.38;;;10.38;;
16662;SDS011;8445;51.270;9.434;2023-08-20T10:05:33;11.93;;;10.88;;
16662;SDS011;8445;51.270;9.434;2023-08-20T10:08:12;12.75;;;11.50;;
16662;SDS011;8445;51.270;9.434;2023-08-20T10:10:48;13.07;;;11.98;;
16662;SDS011;8445;51.270;9.434;2023-08-20T10:13:53;12.57;;;11.48;;
16662;SDS011;8445;51.270;9.434;2023-08-20T10:16:23;11.88;;;10.95;;
16662;SDS011;8445;51.270;9.434;2023-08-20T10:19:18;11.93;;;10.93;;
16662;SDS011;8445;51.270;9.434;2023-08-20T10:22:32;10.13;;;9.20;;
16662;SDS011;8445;51.270;9.434;2023-08-20T10:25:23;11.57;;;10.77;;
16662;SDS011;8445;51.270;9.434;2023-08-20T10:28:32;11.80;;;10.80;;
16662;SDS011;8445;51.270;9.434;2023-08-20T10:31:08;11.38;;;10.48;;
16662;SDS011;8445;51.270;9.434;2023-08-20T10:34:04;12.18;;;11.18;;
16662;SDS011;8445;51.270;9.434;2023-08-20T10:36:55;12.82;;;11.13;;
16662;SDS011;8445;51.270;9.434;2023-08-20T10:40:13;10.27;;;9.45;;
16662;SDS011;8445;51.270;9.434;2023-08-20T10:43:40;13.50;;;10.93;;
16662;SDS011;8445;51.270;9.434;2023-08-20T10:46:50;10.30;;;9.40;;
16662;SDS011;8445;51.270;9.434;2023-08-20T10:49:45;9.75;;;8.95;;
16662;SDS011;8445;51.270;9.434;2023-08-20T10:52:20;11.10;;;10.07;;
16662;SDS011;8445;51.270;9.434;2023-08-20T10:54:49;9.95;;;9.25;;
16662;SDS011;8445;51.270;9.434;2023-08-20T10:57:21;9.38;;;8.77;;
16662;SDS011;8445;51.270;9.434;2023-08-20T10:59:58;10.70;;;9.77;;
16662;SDS011;8445;51.270;9.434;2023-08-20T11:02:40;10.48;;;8.95;;
16662;SDS011;8445;51.270;9.434;2023-08-20T11:05:17;8.77;;;8.18;;
16662;SDS011;8445;51.270;9.434;2023-08-20T11:07:47;9.55;;;8.85;;
16662;SDS011;8445;51.270;9.434;2023-08-20T11:10:14;9.90;;;9.20;;
16662;SDS011;8445;51.270;9.434;2023-08-20T11:13:25;8.82;;;8.32;;
16662;SDS011;8445;51.270;9.434;2023-08-20T11:15:51;9.63;;;8.73;;
16662;SDS011;8445;51.270;9.434;2023-08-20T11:18:17;10.38;;;9.63;;
16662;SDS011;8445;51.270;9.434;2023-08-20T11:20:44;10.20;;;9.50;;
16662;SDS011;8445;51.270;9.434;2023-08-20T11:23:10;9.57;;;8.77;;
16662;SDS011;8445;51.270;9.434;2023-08-20T11:25:43;9.57;;;8.88;;
16662;SDS011;8445;51.270;9.434;2023-08-20T11:28:13;9.55;;;8.65;;
16662;SDS011;8445;51.270;9.434;2023-08-20T11:30:39;8.68;;;7.75;;
16662;SDS011;8445;51.270;9.434;2023-08-20T11:33:05;8.82;;;8.02;;
16662;SDS011;8445;51.270;9.434;2023-08-20T11:35:32;8.25;;;7.57;;
16662;SDS011;8445;51.270;9.434;2023-08-20T11:38:00;7.88;;;7.20;;
16662;SDS011;8445;51.270;9.434;2023-08-20T11:40:29;7.55;;;7.00;;
16662;SDS011;8445;51.270;9.434;2023-08-20T11:42:55;8.63;;;7.93;;
16662;SDS011;8445;51.270;9.434;2023-08-20T11:45:22;8.85;;;8.15;;
16662;SDS011;8445;51.270;9.434;2023-08-20T11:47:48;8.85;;;8.15;;
16662;SDS011;8445;51.270;9.434;2023-08-20T11:50:14;8.60;;;8.00;;
16662;SDS011;8445;51.270;9.434;2023-08-20T11:52:40;8.73;;;8.13;;
16662;SDS011;8445;51.270;9.434;2023-08-20T11:55:06;8.50;;;7.80;;
16662;SDS011;8445;51.270;9.434;2023-08-20T11:57:33;8.85;;;8.15;;
16662;SDS011;8445;51.270;9.434;2023-08-20T12:00:05;9.00;;;8.30;;
16662;SDS011;8445;51.270;9.434;2023-08-20T12:02:41;8.63;;;8.02;;
16662;SDS011;8445;51.270;9.434;2023-08-20T12:05:07;9.52;;;8.75;;
16662;SDS011;8445;51.270;9.434;2023-08-20T12:07:37;9.27;;;8.63;;
16662;SDS011;8445;51.270;9.434;2023-08-20T12:10:19;8.52;;;7.93;;
16662;SDS011;8445;51.270;9.434;2023-08-20T12:12:55;8.40;;;7.75;;
16662;SDS011;8445;51.270;9.434;2023-08-20T12:15:23;9.15;;;8.43;;
16662;SDS011;8445;51.270;9.434;2023-08-20T12:18:02;10.45;;;9.43;;
16662;SDS011;8445;51.270;9.434;2023-08-20T12:20:31;8.60;;;8.00;;
16662;SDS011;8445;51.270;9.434;2023-08-20T12:23:01;8.40;;;7.80;;
16662;SDS011;8445;51.270;9.434;2023-08-20T12:25:32;8.73;;;8.13;;
16662;SDS011;8445;51.270;9.434;2023-08-20T12:28:03;8.10;;;7.50;;
16662;SDS011;8445;51.270;9.434;2023-08-20T12:30:31;8.57;;;7.88;;
16662;SDS011;8445;51.270;9.434;2023-08-20T12:33:00;8.65;;;7.95;;
16662;SDS011;8445;51.270;9.434;2023-08-20T12:35:28;7.93;;;7.13;;
16662;SDS011;8445;51.270;9.434;2023-08-20T12:37:54;16.40;;;14.98;;
16662;SDS011;8445;51.270;9.434;2023-08-20T12:40:20;8.13;;;7.43;;
16662;SDS011;8445;51.270;9.434;2023-08-20T12:42:51;8.93;;;7.13;;
16662;SDS011;8445;51.270;9.434;2023-08-20T12:45:21;7.03;;;6.57;;
16662;SDS011;8445;51.270;9.434;2023-08-20T12:47:51;7.93;;;7.22;;
16662;SDS011;8445;51.270;9.434;2023-08-20T12:50:22;10.90;;;9.93;;
16662;SDS011;8445;51.270;9.434;2023-08-20T12:52:53;8.15;;;7.53;;
16662;SDS011;8445;51.270;9.434;2023-08-20T12:55:20;7.60;;;7.00;;
16662;SDS011;8445;51.270;9.434;2023-08-20T12:57:54;7.40;;;6.90;;
16662;SDS011;8445;51.270;9.434;2023-08-20T13:00:24;7.07;;;6.68;;
16662;SDS011;8445;51.270;9.434;2023-08-20T13:02:53;7.30;;;6.80;;
16662;SDS011;8445;51.270;9.434;2023-08-20T13:05:22;8.02;;;7.30;;
16662;SDS011;8445;51.270;9.434;2023-08-20T13:07:50;7.20;;;6.57;;
16662;SDS011;8445;51.270;9.434;2023-08-20T13:10:21;7.90;;;7.15;;
16662;SDS011;8445;51.270;9.434;2023-08-20T13:12:51;7.82;;;7.28;;
16662;SDS011;8445;51.270;9.434;2023-08-20T13:15:20;8.27;;;7.57;;
16662;SDS011;8445;51.270;9.434;2023-08-20T13:17:53;7.15;;;6.65;;
16662;SDS011;8445;51.270;9.434;2023-08-20T13:20:22;7.47;;;6.13;;
16662;SDS011;8445;51.270;9.434;2023-08-20T13:22:51;7.40;;;6.18;;
16662;SDS011;8445;51.270;9.434;2023-08-20T13:25:18;6.63;;;6.07;;
16662;SDS011;8445;51.270;9.434;2023-08-20T13:27:49;6.60;;;5.85;;
16662;SDS011;8445;51.270;9.434;2023-08-20T13:30:19;8.32;;;7.35;;
16662;SDS011;8445;51.270;9.434;2023-08-20T13:32:49;7.45;;;6.85;;
16662;SDS011;8445;51.270;9.434;2023-08-20T13:35:27;9.35;;;7.38;;
16662;SDS011;8445;51.270;9.434;2023-08-20T13:37:53;8.48;;;7.00;;
16662;SDS011;8445;51.270;9.434;2023-08-20T13:40:19;8.25;;;7.65;;
16662;SDS011;8445;51.270;9.434;2023-08-20T13:42:45;9.20;;;8.25;;
16662;SDS011;8445;51.270;9.434;2023-08-20T13:45:13;10.43;;;8.52;;
16662;SDS011;8445;51.270;9.434;2023-08-20T13:47:39;8.25;;;7.50;;
16662;SDS011;8445;51.270;9.434;2023-08-20T13:50:05;7.43;;;6.80;;
16662;SDS011;8445;51.270;9.434;2023-08-20T13:52:32;8.07;;;7.40;;
16662;SDS011;8445;51.270;9.434;2023-08-20T13:54:58;8.20;;;7.57;;
16662;SDS011;8445;51.270;9.434;2023-08-20T13:57:24;8.00;;;7.30;;
16662;SDS011;8445;51.270;9.434;2023-08-20T13:59:50;7.68;;;7.05;;
16662;SDS011;8445;51.270;9.434;2023-08-20T14:02:16;8.07;;;7.28;;
16662;SDS011;8445;51.270;9.434;2023-08-20T14:04:42;7.65;;;7.05;;
16662;SDS011;8445;51.270;9.434;2023-08-20T14:07:08;7.85;;;7.30;;
16662;SDS011;8445;51.270;9.434;2023-08-20T14:09:34;8.73;;;7.82;;
16662;SDS011;8445;51.270;9.434;2023-08-20T14:12:01;8.15;;;7.45;;
16662;SDS011;8445;51.270;9.434;2023-08-20T14:14:29;7.80;;;7.20;;
16662;SDS011;8445;51.270;9.434;2023-08-20T14:16:55;7.50;;;6.95;;
16662;SDS011;8445;51.270;9.434;2023-08-20T14:19:23;7.80;;;7.20;;
16662;SDS011;8445;51.270;9.434;2023-08-20T14:21:51;7.90;;;7.20;;
16662;SDS011;8445;51.270;9.434;2023-08-20T14:24:20;8.00;;;7.20;;
16662;SDS011;8445;51.270;9.434;2023-08-20T14:26:47;8.68;;;7.88;;
16662;SDS011;8445;51.270;9.434;2023-08-20T14:29:16;7.78;;;7.18;;
16662;SDS011;8445;51.270;9.434;2023-08-20T14:31:42;8.05;;;7.32;;
16662;SDS011;8445;51.270;9.434;2023-08-20T14:34:11;7.50;;;6.90;;
16662;SDS011;8445;51.270;9.434;2023-08-20T14:36:39;8.50;;;7.80;;
16662;SDS011;8445;51.270;9.434;2023-08-20T14:39:05;8.85;;;8.02;;
16662;SDS011;8445;51.270;9.434;2023-08-20T14:41:33;8.57;;;7.65;;
16662;SDS011;8445;51.270;9.434;2023-08-20T14:44:03;7.72;;;7.07;;
16662;SDS011;8445;51.270;9.434;2023-08-20T14:46:29;7.32;;;6.72;;
16662;SDS011;8445;51.270;9.434;2023-08-20T14:48:55;7.80;;;7.10;;
16662;SDS011;8445;51.270;9.434;2023-08-20T14:51:22;7.93;;;7.30;;
16662;SDS011;8445;51.270;9.434;2023-08-20T14:53:48;7.50;;;6.80;;
16662;SDS011;8445;51.270;9.434;2023-08-20T14:56:14;7.72;;;7.03;;
16662;SDS011;8445;51.270;9.434;2023-08-20T14:58:44;8.20;;;7.50;;
16662;SDS011;8445;51.270;9.434;2023-08-20T15:01:11;7.80;;;7.00;;
16662;SDS011;8445;51.270;9.434;2023-08-20T15:03:47;8.25;;;7.60;;
16662;SDS011;8445;51.270;9.434;2023-08-20T15:06:14;7.68;;;7.07;;
16662;SDS011;8445;51.270;9.434;2023-08-20T15:08:43;7.40;;;7.00;;
16662;SDS011;8445;51.270;9.434;2023-08-20T15:11:12;7.65;;;7.07;;
16662;SDS011;8445;51.270;9.434;2023-08-20T15:13:41;8.18;;;7.45;;
16662;SDS011;8445;51.270;9.434;2023-08-20T15:16:14;7.72;;;7.05;;
16662;SDS011;8445;51.270;9.434;2023-08-20T15:18:41;7.72;;;7.13;;
16662;SDS011;8445;51.270;9.434;2023-08-20T15:21:09;8.00;;;7.38;;
16662;SDS011;8445;51.270;9.434;2023-08-20T15:23:36;7.90;;;7.10;;
16662;SDS011;8445;51.270;9.434;2023-08-20T15:26:04;7.68;;;7.07;;
16662;SDS011;8445;51.270;9.434;2023-08-20T15:28:30;9.38;;;7.25;;
16662;SDS011;8445;51.270;9.434;2023-08-20T15:30:57;7.60;;;6.90;;
16662;SDS011;8445;51.270;9.434;2023-08-20T15:33:28;7.90;;;7.20;;
16662;SDS011;8445;51.270;9.434;2023-08-20T15:35:57;7.63;;;7.03;;
16662;SDS011;8445;51.270;9.434;2023-08-20T15:38:25;7.28;;;6.57;;
16662;SDS011;8445;51.270;9.434;2023-08-20T15:40:54;7.97;;;7.35;;
16662;SDS011;8445;51.270;9.434;2023-08-20T15:43:29;7.97;;;7.28;;
16662;SDS011;8445;51.270;9.434;2023-08-20T15:46:05;8.02;;;7.22;;
16662;SDS011;8445;51.270;9.434;2023-08-20T15:48:35;7.32;;;6.57;;
16662;SDS011;8445;51.270;9.434;2023-08-20T15:51:01;8.40;;;7.25;;
16662;SDS011;8445;51.270;9.434;2023-08-20T15:53:30;6.88;;;6.28;;
16662;SDS011;8445;51.270;9.434;2023-08-20T15:56:06;6.63;;;6.20;;
16662;SDS011;8445;51.270;9.434;2023-08-20T15:58:32;6.88;;;6.20;;
16662;SDS011;8445;51.270;9.434;2023-08-20T16:01:00;6.43;;;5.85;;
16662;SDS011;8445;51.270;9.434;2023-08-20T16:03:28;7.03;;;6.63;;
16662;SDS011;8445;51.270;9.434;2023-08-20T16:05:57;7.38;;;6.88;;
16662;SDS011;8445;51.270;9.434;2023-08-20T16:08:27;6.82;;;6.15;;
16662;SDS011;8445;51.270;9.434;2023-08-20T16:10:55;7.35;;;6.60;;
16662;SDS011;8445;51.270;9.434;2023-08-20T16:13:22;6.72;;;6.22;;
16662;SDS011;8445;51.270;9.434;2023-08-20T16:15:49;6.82;;;6.35;;
16662;SDS011;8445;51.270;9.434;2023-08-20T16:18:16;7.80;;;7.10;;
16662;SDS011;8445;51.270;9.434;2023-08-20T16:20:44;7.55;;;6.93;;
16662;SDS011;8445;51.270;9.434;2023-08-20T16:23:11;7.97;;;7.22;;
16662;SDS011;8445;51.270;9.434;2023-08-20T16:25:38;8.15;;;7.50;;
16662;SDS011;8445;51.270;9.434;2023-08-20T16:28:07;7.70;;;6.68;;
16662;SDS011;8445;51.270;9.434;2023-08-20T16:30:38;7.57;;;6.97;;
16662;SDS011;8445;51.270;9.434;2023-08-20T16:33:05;7.38;;;6.78;;
16662;SDS011;8445;51.270;9.434;2023-08-20T16:35:33;6.35;;;5.95;;
16662;SDS011;8445;51.270;9.434;2023-08-20T16:37:59;11.95;;;6.50;;
16662;SDS011;8445;51.270;9.434;2023-08-20T16:40:26;8.30;;;6.85;;
16662;SDS011;8445;51.270;9.434;2023-08-20T16:42:58;8.27;;;6.38;;
16662;SDS011;8445;51.270;9.434;2023-08-20T16:45:25;7.70;;;7.10;;
16662;SDS011;8445;51.270;9.434;2023-08-20T16:47:51;7.10;;;6.50;;
16662;SDS011;8445;51.270;9.434;2023-08-20T16:50:17;7.25;;;6.65;;
16662;SDS011;8445;51.270;9.434;2023-08-20T16:52:46;6.85;;;6.35;;
16662;SDS011;8445;51.270;9.434;2023-08-20T16:55:15;7.20;;;6.60;;
16662;SDS011;8445;51.270;9.434;2023-08-20T16:57:44;7.43;;;6.65;;
16662;SDS011;8445;51.270;9.434;2023-08-20T17:00:13;7.50;;;6.65;;
16662;SDS011;8445;51.270;9.434;2023-08-20T17:02:39;7.03;;;6.53;;
16662;SDS011;8445;51.270;9.434;2023-08-20T17:05:06;8.60;;;7.70;;
16662;SDS011;8445;51.270;9.434;2023-08-20T17:07:32;7.47;;;6.75;;
16662;SDS011;8445;51.270;9.434;2023-08-20T17:10:00;7.20;;;6.60;;
16662;SDS011;8445;51.270;9.434;2023-08-20T17:12:29;7.93;;;7.32;;
16662;SDS011;8445;51.270;9.434;2023-08-20T17:15:08;8.07;;;7.32;;
16662;SDS011;8445;51.270;9.434;2023-08-20T17:17:35;9.23;;;6.75;;
16662;SDS011;8445;51.270;9.434;2023-08-20T17:20:05;8.20;;;7.60;;
16662;SDS011;8445;51.270;9.434;2023-08-20T17:22:38;8.20;;;7.60;;
16662;SDS011;8445;51.270;9.434;2023-08-20T17:25:14;8.60;;;7.65;;
16662;SDS011;8445;51.270;9.434;2023-08-20T17:27:44;8.82;;;8.02;;
16662;SDS011;8445;51.270;9.434;2023-08-20T17:30:10;8.60;;;8.00;;
16662;SDS011;8445;51.270;9.434;2023-08-20T17:32:37;8.35;;;7.32;;
16662;SDS011;8445;51.270;9.434;2023-08-20T17:35:04;9.82;;;7.90;;
16662;SDS011;8445;51.270;9.434;2023-08-20T17:37:37;8.02;;;7.50;;
16662;SDS011;8445;51.270;9.434;2023-08-20T17:40:07;10.20;;;9.15;;
16662;SDS011;8445;51.270;9.434;2023-08-20T17:42:38;9.32;;;8.52;;
16662;SDS011;8445;51.270;9.434;2023-08-20T17:45:07;9.65;;;8.63;;
16662;SDS011;8445;51.270;9.434;2023-08-20T17:47:37;8.73;;;8.05;;
16662;SDS011;8445;51.270;9.434;2023-08-20T17:50:06;8.88;;;8.00;;
16662;SDS011;8445;51.270;9.434;2023-08-20T17:52:33;8.55;;;7.85;;
16662;SDS011;8445;51.270;9.434;2023-08-20T17:54:59;10.93;;;8.50;;
16662;SDS011;8445;51.270;9.434;2023-08-20T17:57:25;9.25;;;7.75;;
16662;SDS011;8445;51.270;9.434;2023-08-20T17:59:51;10.45;;;9.40;;
16662;SDS011;8445;51.270;9.434;2023-08-20T18:02:17;9.57;;;8.68;;
16662;SDS011;8445;51.270;9.434;2023-08-20T18:04:43;11.32;;;10.50;;
16662;SDS011;8445;51.270;9.434;2023-08-20T18:07:10;22.15;;;11.60;;
16662;SDS011;8445;51.270;9.434;2023-08-20T18:09:37;17.42;;;13.65;;
16662;SDS011;8445;51.270;9.434;2023-08-20T18:12:03;11.07;;;10.07;;
16662;SDS011;8445;51.270;9.434;2023-08-20T18:14:30;11.65;;;10.65;;
16662;SDS011;8445;51.270;9.434;2023-08-20T18:16:56;10.30;;;9.30;;
16662;SDS011;8445;51.270;9.434;2023-08-20T18:19:22;10.35;;;9.55;;
16662;SDS011;8445;51.270;9.434;2023-08-20T18:21:48;9.77;;;8.98;;
16662;SDS011;8445;51.270;9.434;2023-08-20T18:24:14;11.93;;;10.88;;
16662;SDS011;8445;51.270;9.434;2023-08-20T18:26:40;11.05;;;9.95;;